createdAt,value
2019-02-14T00:01:16.232Z,23.33
2019-02-14T00:03:44.613Z,21.07
2019-02-14T00:06:12.963Z,21.53
2019-02-14T00:08:41.321Z,22.33
2019-02-14T00:11:09.679Z,23.13
2019-02-14T00:13:38.119Z,20.47
2019-02-14T00:16:06.491Z,20.17
2019-02-14T00:18:34.970Z,20.40
2019-02-14T00:21:03.331Z,21.10
2019-02-14T00:23:31.705Z,19.20
2019-02-14T00:26:00.068Z,22.57
2019-02-14T00:28:28.447Z,22.10
2019-02-14T00:30:56.803Z,22.00
2019-02-14T00:33:25.139Z,21.30
2019-02-14T00:35:53.490Z,21.47
2019-02-14T00:38:21.847Z,20.63
2019-02-14T00:40:50.208Z,19.87
2019-02-14T00:43:18.543Z,19.77
2019-02-14T00:45:47.127Z,20.60
2019-02-14T00:48:15.527Z,20.57
2019-02-14T00:50:43.863Z,20.67
2019-02-14T00:53:12.213Z,21.17
2019-02-14T00:55:40.566Z,19.80
2019-02-14T00:58:08.914Z,19.73
2019-02-14T01:00:37.284Z,20.03
2019-02-14T01:03:05.712Z,21.30
2019-02-14T01:05:34.064Z,19.53
2019-02-14T01:08:02.414Z,20.47
2019-02-14T01:10:30.747Z,22.27
2019-02-14T01:12:59.144Z,20.23
2019-02-14T01:15:27.907Z,20.90
2019-02-14T01:17:56.267Z,20.93
2019-02-14T01:20:24.662Z,20.07
2019-02-14T01:22:53.039Z,19.40
2019-02-14T01:25:21.395Z,19.47
2019-02-14T01:27:49.771Z,19.23
2019-02-14T01:30:18.105Z,18.83
2019-02-14T01:32:46.551Z,19.33
2019-02-14T01:35:15.014Z,18.87
2019-02-14T01:37:43.397Z,20.70
2019-02-14T01:40:11.763Z,19.23
2019-02-14T01:42:40.200Z,21.37
2019-02-14T01:45:09.377Z,19.87
2019-02-14T01:47:37.735Z,20.73
2019-02-14T01:50:06.223Z,20.37
2019-02-14T01:52:34.627Z,20.70
2019-02-14T01:55:03.094Z,18.90
2019-02-14T01:57:31.469Z,19.97
2019-02-14T01:59:59.832Z,19.23
2019-02-14T02:02:28.224Z,20.27
2019-02-14T02:04:56.580Z,20.03
2019-02-14T02:07:24.928Z,20.43
2019-02-14T02:09:53.415Z,19.80
2019-02-14T02:12:21.866Z,19.67
2019-02-14T02:14:50.324Z,19.33
2019-02-14T02:17:18.723Z,19.17
2019-02-14T02:19:47.136Z,20.27
2019-02-14T02:22:15.483Z,19.60
2019-02-14T02:24:43.888Z,20.67
2019-02-14T02:27:12.243Z,19.87
2019-02-14T02:29:40.596Z,20.30
2019-02-14T02:32:09.067Z,20.00
2019-02-14T02:34:37.517Z,19.23
2019-02-14T02:37:05.904Z,18.37
2019-02-14T02:39:34.262Z,20.20
2019-02-14T02:42:02.586Z,20.33
2019-02-14T02:44:31.201Z,19.20
2019-02-14T02:46:59.585Z,19.90
2019-02-14T02:49:29.469Z,19.13
2019-02-14T02:51:58.186Z,20.07
2019-02-14T02:54:26.523Z,20.73
2019-02-14T02:56:54.911Z,20.07
2019-02-14T02:59:23.292Z,19.83
2019-02-14T03:01:51.660Z,21.57
2019-02-14T03:04:20.123Z,21.37
2019-02-14T03:06:48.590Z,22.00
2019-02-14T03:09:16.965Z,20.67
2019-02-14T03:11:45.437Z,21.73
2019-02-14T03:14:13.913Z,21.27
2019-02-14T03:16:42.294Z,20.97
2019-02-14T03:19:10.649Z,21.97
2019-02-14T03:21:38.983Z,21.70
2019-02-14T03:24:07.357Z,21.17
2019-02-14T03:26:35.687Z,21.17
2019-02-14T03:29:04.115Z,18.93
2019-02-14T03:31:32.566Z,21.03
2019-02-14T03:34:00.930Z,19.63
2019-02-14T03:36:29.272Z,20.83
2019-02-14T03:38:57.629Z,19.70
2019-02-14T03:41:25.972Z,21.03
2019-02-14T03:43:54.294Z,20.53
2019-02-14T03:46:22.636Z,21.00
2019-02-14T03:48:50.986Z,20.53
2019-02-14T03:51:19.363Z,21.27
2019-02-14T03:53:47.834Z,19.90
2019-02-14T03:56:16.210Z,19.53
2019-02-14T03:58:44.581Z,18.77
2019-02-14T04:01:12.956Z,19.77
2019-02-14T04:03:41.360Z,19.60
2019-02-14T04:06:09.991Z,21.23
2019-02-14T04:08:38.353Z,20.90
2019-02-14T04:11:06.703Z,19.47
2019-02-14T04:13:35.077Z,19.90
2019-02-14T04:16:04.542Z,20.47
2019-02-14T04:18:33.316Z,19.80
2019-02-14T04:21:01.667Z,19.50
2019-02-14T04:23:30.027Z,20.07
2019-02-14T04:25:58.385Z,21.67
2019-02-14T04:28:26.728Z,20.00
2019-02-14T04:30:55.067Z,19.13
2019-02-14T04:33:23.477Z,20.67
2019-02-14T04:35:51.839Z,20.10
2019-02-14T04:38:20.227Z,20.43
2019-02-14T04:40:48.603Z,19.70
2019-02-14T04:43:16.963Z,19.33
2019-02-14T04:45:45.365Z,20.17
2019-02-14T04:48:13.713Z,21.47
2019-02-14T04:50:42.061Z,20.10
2019-02-14T04:53:10.390Z,22.00
2019-02-14T04:55:39.167Z,22.53
2019-02-14T04:58:07.681Z,23.13
2019-02-14T05:00:36.003Z,21.33
2019-02-14T05:03:04.387Z,22.27
2019-02-14T05:05:32.955Z,20.60
2019-02-14T05:08:01.326Z,21.63
2019-02-14T05:10:29.675Z,21.50
2019-02-14T05:12:58.007Z,23.23
2019-02-14T05:15:26.375Z,21.77
2019-02-14T05:17:54.769Z,20.60
2019-02-14T05:20:23.123Z,22.27
2019-02-14T05:22:51.479Z,21.47
2019-02-14T05:25:19.835Z,21.37
2019-02-14T05:27:48.180Z,20.87
2019-02-14T05:30:16.605Z,21.20
2019-02-14T05:32:45.021Z,20.00
2019-02-14T05:35:13.401Z,19.03
2019-02-14T05:37:41.998Z,20.10
2019-02-14T05:40:10.513Z,19.80
2019-02-14T05:42:38.852Z,19.67
2019-02-14T05:45:07.641Z,24.80
2019-02-14T05:47:36.007Z,20.70
2019-02-14T05:50:04.863Z,19.47
2019-02-14T05:52:33.269Z,19.27
2019-02-14T05:55:01.607Z,19.13
2019-02-14T05:57:29.967Z,18.00
2019-02-14T05:59:58.347Z,19.17
2019-02-14T06:02:26.744Z,20.70
2019-02-14T06:04:55.103Z,17.67
2019-02-14T06:07:23.474Z,17.93
2019-02-14T06:09:51.860Z,16.93
2019-02-14T06:12:20.206Z,17.87
2019-02-14T06:14:48.559Z,18.70
2019-02-14T06:17:16.950Z,18.00
2019-02-14T06:19:45.659Z,20.23
2019-02-14T06:22:14.043Z,21.63
2019-02-14T06:24:42.463Z,22.50
2019-02-14T06:27:10.811Z,17.60
2019-02-14T06:29:39.166Z,17.43
2019-02-14T06:32:07.529Z,18.33
2019-02-14T06:34:35.896Z,16.90
2019-02-14T06:37:09.590Z,17.67
2019-02-14T06:39:34.355Z,17.23
2019-02-14T06:42:02.803Z,16.70
2019-02-14T06:44:31.119Z,17.47
2019-02-14T06:46:59.467Z,16.43
2019-02-14T06:49:27.812Z,17.10
2019-02-14T06:51:56.156Z,16.57
2019-02-14T06:54:24.514Z,17.20
2019-02-14T06:56:52.875Z,17.03
2019-02-14T06:59:21.234Z,17.07
2019-02-14T07:01:49.578Z,16.03
2019-02-14T07:04:17.927Z,18.20
2019-02-14T07:06:46.264Z,17.73
2019-02-14T07:09:14.670Z,19.07
2019-02-14T07:11:43.017Z,18.20
2019-02-14T07:14:11.531Z,19.10
2019-02-14T07:16:39.985Z,19.03
2019-02-14T07:19:08.328Z,18.50
2019-02-14T07:21:36.729Z,18.27
2019-02-14T07:24:05.195Z,17.37
2019-02-14T07:26:33.529Z,17.47
2019-02-14T07:29:01.969Z,16.87
2019-02-14T07:31:30.294Z,18.00
2019-02-14T07:33:58.643Z,19.00
2019-02-14T07:36:26.996Z,18.70
2019-02-14T07:38:55.357Z,18.50
2019-02-14T07:41:23.699Z,17.70
2019-02-14T07:43:52.094Z,16.90
2019-02-14T07:46:22.743Z,17.17
2019-02-14T07:48:50.480Z,16.90
2019-02-14T07:51:18.853Z,16.60
2019-02-14T07:53:47.227Z,16.23
2019-02-14T07:56:15.563Z,17.37
2019-02-14T07:58:43.939Z,16.13
2019-02-14T08:01:12.279Z,16.77
2019-02-14T08:03:40.639Z,16.73
2019-02-14T08:06:09.021Z,15.50
2019-02-14T08:08:37.407Z,16.20
2019-02-14T08:11:05.740Z,15.10
2019-02-14T08:13:34.089Z,17.53
2019-02-14T08:16:02.557Z,15.40
2019-02-14T08:18:30.926Z,15.83
2019-02-14T08:20:59.312Z,14.73
2019-02-14T08:23:27.643Z,14.93
2019-02-14T08:25:56.009Z,14.80
2019-02-14T08:28:24.386Z,14.63
2019-02-14T08:30:52.763Z,14.73
2019-02-14T08:33:21.126Z,13.70
2019-02-14T08:35:49.472Z,14.80
2019-02-14T08:38:17.795Z,15.20
2019-02-14T08:40:46.396Z,14.87
2019-02-14T08:43:14.773Z,14.87
2019-02-14T08:45:43.120Z,14.13
2019-02-14T08:48:11.518Z,13.80
2019-02-14T08:50:39.877Z,15.33
2019-02-14T08:53:08.245Z,14.53
2019-02-14T08:55:36.591Z,15.57
2019-02-14T08:58:04.928Z,13.03
2019-02-14T09:00:33.423Z,13.90
2019-02-14T09:03:01.748Z,15.30
2019-02-14T09:05:30.206Z,15.20
2019-02-14T09:07:58.577Z,14.57
2019-02-14T09:10:26.909Z,14.87
2019-02-14T09:12:55.235Z,13.60
2019-02-14T09:15:23.590Z,12.73
2019-02-14T09:17:51.941Z,12.93
2019-02-14T09:20:20.320Z,14.20
2019-02-14T09:22:48.806Z,13.97
2019-02-14T09:25:17.255Z,13.33
2019-02-14T09:27:45.610Z,14.43
2019-02-14T09:30:14.039Z,13.30
2019-02-14T09:32:42.521Z,13.73
2019-02-14T09:35:11.077Z,14.47
2019-02-14T09:37:39.427Z,15.30
2019-02-14T09:40:08.809Z,16.20
2019-02-14T09:42:37.173Z,14.87
2019-02-14T09:45:06.081Z,15.37
2019-02-14T09:47:34.554Z,17.00
2019-02-14T09:50:03.032Z,14.67
2019-02-14T09:52:31.445Z,17.47
2019-02-14T09:54:59.789Z,16.00
2019-02-14T09:57:28.124Z,15.13
2019-02-14T09:59:56.450Z,14.70
2019-02-14T10:02:25.821Z,15.10
2019-02-14T10:04:54.669Z,14.73
2019-02-14T10:07:23.033Z,14.60
2019-02-14T10:09:51.388Z,14.77
2019-02-14T10:12:19.700Z,14.20
2019-02-14T10:14:48.055Z,14.50
2019-02-14T10:17:22.031Z,13.70
2019-02-14T10:19:46.632Z,12.97
2019-02-14T10:22:14.999Z,14.37
2019-02-14T10:24:43.435Z,13.93
2019-02-14T10:27:11.766Z,12.67
2019-02-14T10:29:40.110Z,13.07
2019-02-14T10:32:08.564Z,13.10
2019-02-14T10:34:36.916Z,13.83
2019-02-14T10:37:05.253Z,13.03
2019-02-14T10:39:33.596Z,13.13
2019-02-14T10:42:01.941Z,14.43
2019-02-14T10:44:30.293Z,13.47
2019-02-14T10:46:58.622Z,14.73
2019-02-14T10:49:27.087Z,13.63
2019-02-14T10:51:55.435Z,13.57
2019-02-14T10:54:23.781Z,12.73
2019-02-14T10:56:52.294Z,12.23
2019-02-14T10:59:20.741Z,12.87
2019-02-14T11:01:49.083Z,13.43
2019-02-14T11:04:17.434Z,14.97
2019-02-14T11:06:45.806Z,14.17
2019-02-14T11:09:14.142Z,12.83
2019-02-14T11:11:42.586Z,13.53
2019-02-14T11:14:11.024Z,13.50
2019-02-14T11:16:39.498Z,14.80
2019-02-14T11:19:07.835Z,13.90
2019-02-14T11:21:36.303Z,13.53
2019-02-14T11:24:04.657Z,13.63
2019-02-14T11:26:33.024Z,13.20
2019-02-14T11:29:01.429Z,12.37
2019-02-14T11:31:29.803Z,13.20
2019-02-14T11:33:58.144Z,14.23
2019-02-14T11:36:26.479Z,12.57
2019-02-14T11:38:54.853Z,14.10
2019-02-14T11:41:23.235Z,12.93
2019-02-14T11:43:51.576Z,13.00
2019-02-14T11:46:19.904Z,13.50
2019-02-14T11:48:48.347Z,13.87
2019-02-14T11:51:16.807Z,12.43
2019-02-14T11:53:45.175Z,13.33
2019-02-14T11:56:13.520Z,13.63
2019-02-14T11:58:41.866Z,13.43
2019-02-14T12:01:10.258Z,13.60
2019-02-14T12:03:38.610Z,13.97
2019-02-14T12:06:06.939Z,14.30
2019-02-14T12:08:35.306Z,14.87
2019-02-14T12:11:03.696Z,13.77
2019-02-14T12:13:32.029Z,15.00
2019-02-14T12:16:00.385Z,14.57
2019-02-14T12:18:28.822Z,14.87
2019-02-14T12:20:57.205Z,14.17
2019-02-14T12:23:25.549Z,14.87
2019-02-14T12:25:53.898Z,14.53
2019-02-14T12:28:22.272Z,15.53
2019-02-14T12:30:50.602Z,14.73
2019-02-14T12:33:18.989Z,13.57
2019-02-14T12:35:47.461Z,15.27
2019-02-14T12:38:15.799Z,14.33
2019-02-14T12:40:44.185Z,14.83
2019-02-14T12:43:12.639Z,14.10
2019-02-14T12:45:40.973Z,15.07
2019-02-14T12:48:09.301Z,15.50
2019-02-14T12:50:37.680Z,15.37
2019-02-14T12:53:06.062Z,16.73
2019-02-14T12:55:34.435Z,14.83
2019-02-14T12:58:02.792Z,15.73
2019-02-14T13:00:31.179Z,15.53
2019-02-14T13:02:59.615Z,14.73
2019-02-14T13:05:28.246Z,16.20
2019-02-14T13:07:56.570Z,16.20
2019-02-14T13:10:25.024Z,15.80
2019-02-14T13:12:53.483Z,16.10
2019-02-14T13:15:22.226Z,14.87
2019-02-14T13:17:50.675Z,14.93
2019-02-14T13:20:19.025Z,14.80
2019-02-14T13:22:47.390Z,16.73
2019-02-14T13:25:16.036Z,14.53
2019-02-14T13:27:44.433Z,15.27
2019-02-14T13:30:16.937Z,15.27
2019-02-14T13:32:45.314Z,15.27
2019-02-14T13:35:13.782Z,15.57
2019-02-14T13:37:42.180Z,14.17
2019-02-14T13:40:10.520Z,14.77
2019-02-14T13:42:38.866Z,14.37
2019-02-14T13:45:08.731Z,14.77
2019-02-14T13:47:37.073Z,14.83
2019-02-14T13:50:05.946Z,14.97
2019-02-14T13:52:36.163Z,15.60
2019-02-14T13:55:04.406Z,14.20
2019-02-14T13:57:32.742Z,14.97
2019-02-14T14:00:01.069Z,14.43
2019-02-14T14:02:29.395Z,15.33
2019-02-14T14:04:57.790Z,13.80
2019-02-14T14:07:26.111Z,13.50
2019-02-14T14:09:54.529Z,14.03
2019-02-14T14:12:22.860Z,13.67
2019-02-14T14:14:51.179Z,13.97
2019-02-14T14:17:19.508Z,13.67
2019-02-14T14:19:47.828Z,13.00
2019-02-14T14:22:16.178Z,14.40
2019-02-14T14:24:44.590Z,14.00
2019-02-14T14:27:12.920Z,12.20
2019-02-14T14:29:41.303Z,11.97
2019-02-14T14:32:09.637Z,13.27
2019-02-14T14:34:37.966Z,12.60
2019-02-14T14:37:06.334Z,13.33
2019-02-14T14:39:34.673Z,12.77
2019-02-14T14:42:04.886Z,13.90
2019-02-14T14:44:45.141Z,12.80
2019-02-14T14:47:21.464Z,13.23
2019-02-14T14:49:49.786Z,12.30
2019-02-14T14:52:18.222Z,11.93
2019-02-14T14:54:47.025Z,5.80
2019-02-14T14:57:15.385Z,4.73
2019-02-14T14:59:43.726Z,5.40
2019-02-14T15:02:12.039Z,4.50
2019-02-14T15:04:40.407Z,4.93
2019-02-14T15:07:08.702Z,4.97
2019-02-14T15:09:37.070Z,4.50
2019-02-14T15:12:05.396Z,4.57
2019-02-14T15:14:34.221Z,4.30
2019-02-14T15:17:02.567Z,5.10
2019-02-14T15:19:30.902Z,4.60
2019-02-14T15:21:59.232Z,4.50
2019-02-14T15:24:27.555Z,5.20
2019-02-14T15:26:55.877Z,5.03
2019-02-14T15:29:24.228Z,5.00
2019-02-14T15:31:52.596Z,8.43
2019-02-14T15:34:20.923Z,5.80
2019-02-14T15:36:49.531Z,6.17
2019-02-14T15:39:19.400Z,4.77
2019-02-14T15:41:47.726Z,5.60
2019-02-14T15:44:16.059Z,5.30
2019-02-14T15:46:44.418Z,4.90
2019-02-14T15:49:12.875Z,4.87
2019-02-14T15:51:42.000Z,4.67
2019-02-14T15:54:11.866Z,4.83
2019-02-14T15:56:44.994Z,5.60
2019-02-14T15:59:10.748Z,5.13
2019-02-14T16:01:39.780Z,5.27
2019-02-14T16:04:09.848Z,5.13
2019-02-14T16:06:38.190Z,5.70
2019-02-14T16:09:07.283Z,5.70
2019-02-14T16:11:38.543Z,5.27
2019-02-14T16:14:06.297Z,5.57
2019-02-14T16:16:34.687Z,5.40
2019-02-14T16:19:03.056Z,5.90
2019-02-14T16:21:31.621Z,5.93
2019-02-14T16:24:00.584Z,5.07
2019-02-14T16:26:28.987Z,4.83
2019-02-14T16:28:57.346Z,5.63
2019-02-14T16:31:25.784Z,6.00
2019-02-14T16:33:54.130Z,5.73
2019-02-14T16:36:22.865Z,6.20
2019-02-14T16:38:51.449Z,6.50
2019-02-14T16:41:19.805Z,5.20
2019-02-14T16:43:48.157Z,5.97
2019-02-14T16:46:16.504Z,5.43
2019-02-14T16:48:45.202Z,5.60
2019-02-14T16:51:13.737Z,6.17
2019-02-14T16:53:42.159Z,5.73
2019-02-14T16:56:10.561Z,5.47
2019-02-14T16:58:38.954Z,6.20
2019-02-14T17:01:07.304Z,5.63
2019-02-14T17:03:35.686Z,6.50
2019-02-14T17:06:11.612Z,6.10
2019-02-14T17:08:40.861Z,6.40
2019-02-14T17:11:09.549Z,6.17
2019-02-14T17:13:38.363Z,6.50
2019-02-14T17:16:06.768Z,6.23
2019-02-14T17:18:35.160Z,7.60
2019-02-14T17:21:03.538Z,6.27
2019-02-14T17:23:31.882Z,6.77
2019-02-14T17:26:00.266Z,7.80
2019-02-14T17:28:28.687Z,8.03
2019-02-14T17:30:57.083Z,6.67
2019-02-14T17:33:25.508Z,7.57
2019-02-14T17:35:54.023Z,9.37
2019-02-14T17:38:22.423Z,7.03
2019-02-14T17:40:50.860Z,7.13
2019-02-14T17:43:19.261Z,7.00
2019-02-14T17:45:47.735Z,7.13
2019-02-14T17:48:16.228Z,7.30
2019-02-14T17:50:44.671Z,6.13
2019-02-14T17:53:13.050Z,6.57
2019-02-14T17:55:41.389Z,7.00
2019-02-14T17:58:09.766Z,6.33
2019-02-14T18:00:40.046Z,6.27
2019-02-14T18:03:08.612Z,6.87
2019-02-14T18:05:37.005Z,6.70
2019-02-14T18:08:05.375Z,6.17
2019-02-14T18:10:33.673Z,6.97
2019-02-14T18:13:02.364Z,6.47
2019-02-14T18:15:31.126Z,6.40
2019-02-14T18:17:59.478Z,7.80
2019-02-14T18:20:27.998Z,7.23
2019-02-14T18:22:56.504Z,6.97
2019-02-14T18:25:25.021Z,6.87
2019-02-14T18:27:53.336Z,8.00
2019-02-14T18:30:21.840Z,7.07
2019-02-14T18:32:50.212Z,8.40
2019-02-14T18:35:19.064Z,7.93
2019-02-14T18:37:47.595Z,7.67
2019-02-14T18:40:17.458Z,8.77
2019-02-14T18:42:46.153Z,9.30
2019-02-14T18:45:14.592Z,9.50
2019-02-14T18:47:42.931Z,9.90
2019-02-14T18:50:11.751Z,10.67
2019-02-14T18:52:40.198Z,9.80
2019-02-14T18:55:09.339Z,10.20
2019-02-14T18:57:37.699Z,9.87
2019-02-14T19:00:08.915Z,11.07
2019-02-14T19:02:37.259Z,10.47
2019-02-14T19:05:05.733Z,10.07
2019-02-14T19:07:34.249Z,9.17
2019-02-14T19:10:02.685Z,11.60
2019-02-14T19:12:31.024Z,10.60
2019-02-14T19:14:59.467Z,10.93
2019-02-14T19:17:27.858Z,11.10
2019-02-14T19:19:56.315Z,9.33
2019-02-14T19:22:24.684Z,10.63
2019-02-14T19:24:53.059Z,11.40
2019-02-14T19:27:22.091Z,11.33
2019-02-14T19:29:50.467Z,10.67
2019-02-14T19:32:18.835Z,11.60
2019-02-14T19:34:47.430Z,11.87
2019-02-14T19:37:15.905Z,12.17
2019-02-14T19:39:44.406Z,12.33
2019-02-14T19:42:12.935Z,12.27
2019-02-14T19:44:41.397Z,12.80
2019-02-14T19:47:09.927Z,14.63
2019-02-14T19:49:38.587Z,13.83
2019-02-14T19:52:07.147Z,13.30
2019-02-14T19:54:35.785Z,13.20
2019-02-14T19:57:04.366Z,13.00
2019-02-14T19:59:32.955Z,14.37
2019-02-14T20:02:01.590Z,13.40
2019-02-14T20:04:30.093Z,13.40
2019-02-14T20:06:58.844Z,12.90
2019-02-14T20:09:27.571Z,13.80
2019-02-14T20:11:56.284Z,14.67
2019-02-14T20:14:24.780Z,13.60
2019-02-14T20:16:53.510Z,13.83
2019-02-14T20:19:22.280Z,14.10
2019-02-14T20:21:51.141Z,13.87
2019-02-14T20:24:19.777Z,14.17
2019-02-14T20:26:48.376Z,14.77
2019-02-14T20:29:16.957Z,14.50
2019-02-14T20:31:45.588Z,13.30
2019-02-14T20:34:14.174Z,12.33
2019-02-14T20:36:42.988Z,12.30
2019-02-14T20:39:11.540Z,12.27
2019-02-14T20:41:45.990Z,11.87
2019-02-14T20:44:10.531Z,11.63
2019-02-14T20:46:39.053Z,12.23
2019-02-14T20:49:07.736Z,13.10
2019-02-14T20:51:38.477Z,13.10
2019-02-14T20:54:07.084Z,12.97
2019-02-14T20:56:35.642Z,13.23
2019-02-14T20:59:04.328Z,12.50
2019-02-14T21:01:33.124Z,13.33
2019-02-14T21:04:01.748Z,12.70
2019-02-14T21:06:30.351Z,13.93
2019-02-14T21:08:58.801Z,14.27
2019-02-14T21:11:27.172Z,14.37
2019-02-14T21:13:55.554Z,12.83
2019-02-14T21:16:23.907Z,14.40
2019-02-14T21:18:52.458Z,15.70
2019-02-14T21:21:20.901Z,14.23
2019-02-14T21:23:49.499Z,14.70
2019-02-14T21:26:18.032Z,15.07
2019-02-14T21:28:46.524Z,15.33
2019-02-14T21:31:14.837Z,14.57
2019-02-14T21:33:43.238Z,14.23
2019-02-14T21:36:11.606Z,15.73
2019-02-14T21:38:39.965Z,15.37
2019-02-14T21:41:08.304Z,17.03
2019-02-14T21:43:37.094Z,17.47
2019-02-14T21:46:05.725Z,15.80
2019-02-14T21:48:34.062Z,16.53
2019-02-14T21:51:02.469Z,17.87
2019-02-14T21:53:30.815Z,17.63
2019-02-14T21:55:59.111Z,17.70
2019-02-14T21:58:27.449Z,17.50
2019-02-14T22:00:55.794Z,16.73
2019-02-14T22:03:24.169Z,16.40
2019-02-14T22:05:52.525Z,18.43
2019-02-14T22:08:20.861Z,16.13
2019-02-14T22:10:49.175Z,15.00
2019-02-14T22:13:17.499Z,17.93
2019-02-14T22:15:45.863Z,18.30
2019-02-14T22:18:14.558Z,17.20
2019-02-14T22:20:43.374Z,17.10
2019-02-14T22:23:12.006Z,16.90
2019-02-14T22:25:40.655Z,17.00
2019-02-14T22:28:08.979Z,17.13
2019-02-14T22:30:37.320Z,17.40
2019-02-14T22:33:05.647Z,17.20
2019-02-14T22:35:33.998Z,17.10
2019-02-14T22:38:02.806Z,17.20
2019-02-14T22:40:31.840Z,17.50
2019-02-14T22:43:00.175Z,17.10
2019-02-14T22:45:28.500Z,16.20
2019-02-14T22:47:56.850Z,16.63
2019-02-14T22:50:25.194Z,16.67
2019-02-14T22:52:53.949Z,16.90
2019-02-14T22:55:22.723Z,16.53
2019-02-14T22:57:51.548Z,17.70
2019-02-14T23:00:31.033Z,18.00
2019-02-14T23:02:59.347Z,17.37
2019-02-14T23:05:27.654Z,16.83
2019-02-14T23:07:56.186Z,17.53
2019-02-14T23:10:24.678Z,16.73
2019-02-14T23:12:55.731Z,18.23
2019-02-14T23:15:23.024Z,16.87
2019-02-14T23:17:51.341Z,17.93
2019-02-14T23:20:19.727Z,17.50
2019-02-14T23:22:48.547Z,17.47
2019-02-14T23:25:16.875Z,17.93
2019-02-14T23:27:45.195Z,17.00
2019-02-14T23:30:13.617Z,17.70
2019-02-14T23:32:42.250Z,18.60
2019-02-14T23:35:10.568Z,17.53
2019-02-14T23:37:38.895Z,18.97
2019-02-14T23:40:07.402Z,18.80
2019-02-14T23:42:36.112Z,17.80
2019-02-14T23:45:05.143Z,17.33
2019-02-14T23:47:33.477Z,16.23
2019-02-14T23:50:01.827Z,17.50
2019-02-14T23:52:30.167Z,17.30
2019-02-14T23:54:58.497Z,17.27
2019-02-14T23:57:26.839Z,16.80
2019-02-14T23:59:55.157Z,18.17
